sensor_id;sensor_type;location;lat;lon;timestamp;P1;durP1;ratioP1;P2;durP2;ratioP2
75408;SDS011;63979;55.644;37.734;2023-08-07T00:00:21;7.82;;;7.05;;
75408;SDS011;63979;55.644;37.734;2023-08-07T00:05:22;9.82;;;8.18;;
75408;SDS011;63979;55.644;37.734;2023-08-07T00:10:24;13.10;;;9.32;;
75408;SDS011;63979;55.644;37.734;2023-08-07T00:15:25;8.18;;;7.20;;
75408;SDS011;63979;55.644;37.734;2023-08-07T00:20:26;9.98;;;7.43;;
75408;SDS011;63979;55.644;37.734;2023-08-07T00:25:27;11.70;;;7.80;;
75408;SDS011;63979;55.644;37.734;2023-08-07T00:30:28;12.18;;;7.18;;
75408;SDS011;63979;55.644;37.734;2023-08-07T00:35:29;11.38;;;7.13;;
75408;SDS011;63979;55.644;37.734;2023-08-07T00:40:40;8.90;;;7.18;;
75408;SDS011;63979;55.644;37.734;2023-08-07T00:45:42;8.20;;;6.82;;
75408;SDS011;63979;55.644;37.734;2023-08-07T00:50:45;7.47;;;6.40;;
75408;SDS011;63979;55.644;37.734;2023-08-07T00:55:48;8.93;;;6.05;;
75408;SDS011;63979;55.644;37.734;2023-08-07T01:00:50;9.05;;;6.47;;
75408;SDS011;63979;55.644;37.734;2023-08-07T01:05:51;8.00;;;7.10;;
75408;SDS011;63979;55.644;37.734;2023-08-07T01:11:04;8.35;;;6.68;;
75408;SDS011;63979;55.644;37.734;2023-08-07T01:16:22;8.07;;;6.57;;
75408;SDS011;63979;55.644;37.734;2023-08-07T01:21:43;9.35;;;7.03;;
75408;SDS011;63979;55.644;37.734;2023-08-07T01:26:48;10.27;;;6.50;;
75408;SDS011;63979;55.644;37.734;2023-08-07T01:31:51;9.65;;;7.50;;
75408;SDS011;63979;55.644;37.734;2023-08-07T01:36:55;8.32;;;7.53;;
75408;SDS011;63979;55.644;37.734;2023-08-07T01:41:58;8.57;;;7.57;;
75408;SDS011;63979;55.644;37.734;2023-08-07T01:47:02;9.05;;;6.90;;
75408;SDS011;63979;55.644;37.734;2023-08-07T01:52:03;8.82;;;6.05;;
75408;SDS011;63979;55.644;37.734;2023-08-07T01:57:05;12.85;;;7.25;;
75408;SDS011;63979;55.644;37.734;2023-08-07T02:02:06;11.02;;;7.05;;
75408;SDS011;63979;55.644;37.734;2023-08-07T02:07:07;8.32;;;6.55;;
75408;SDS011;63979;55.644;37.734;2023-08-07T02:12:08;8.80;;;7.28;;
75408;SDS011;63979;55.644;37.734;2023-08-07T02:22:10;8.00;;;6.72;;
75408;SDS011;63979;55.644;37.734;2023-08-07T02:32:12;9.48;;;7.28;;
75408;SDS011;63979;55.644;37.734;2023-08-07T02:42:14;8.50;;;6.90;;
75408;SDS011;63979;55.644;37.734;2023-08-07T02:47:15;7.53;;;6.70;;
75408;SDS011;63979;55.644;37.734;2023-08-07T02:52:16;7.63;;;6.75;;
75408;SDS011;63979;55.644;37.734;2023-08-07T03:02:18;8.02;;;6.72;;
75408;SDS011;63979;55.644;37.734;2023-08-07T03:07:19;8.20;;;6.72;;
75408;SDS011;63979;55.644;37.734;2023-08-07T03:12:20;7.70;;;6.97;;
75408;SDS011;63979;55.644;37.734;2023-08-07T03:17:21;9.57;;;6.70;;
75408;SDS011;63979;55.644;37.734;2023-08-07T03:22:23;7.15;;;6.35;;
75408;SDS011;63979;55.644;37.734;2023-08-07T03:27:24;9.43;;;6.70;;
75408;SDS011;63979;55.644;37.734;2023-08-07T03:32:26;8.85;;;6.55;;
75408;SDS011;63979;55.644;37.734;2023-08-07T03:37:27;7.47;;;6.45;;
75408;SDS011;63979;55.644;37.734;2023-08-07T03:42:28;6.95;;;6.20;;
75408;SDS011;63979;55.644;37.734;2023-08-07T03:47:29;7.45;;;6.22;;
75408;SDS011;63979;55.644;37.734;2023-08-07T03:52:30;6.43;;;5.30;;
75408;SDS011;63979;55.644;37.734;2023-08-07T03:57:31;7.35;;;6.53;;
75408;SDS011;63979;55.644;37.734;2023-08-07T04:02:32;7.75;;;5.82;;
75408;SDS011;63979;55.644;37.734;2023-08-07T04:07:34;7.00;;;5.32;;
75408;SDS011;63979;55.644;37.734;2023-08-07T04:12:35;7.03;;;5.68;;
75408;SDS011;63979;55.644;37.734;2023-08-07T04:17:36;8.60;;;5.88;;
75408;SDS011;63979;55.644;37.734;2023-08-07T04:22:38;7.30;;;5.55;;
75408;SDS011;63979;55.644;37.734;2023-08-07T04:27:39;5.85;;;5.30;;
75408;SDS011;63979;55.644;37.734;2023-08-07T04:32:40;5.47;;;4.95;;
75408;SDS011;63979;55.644;37.734;2023-08-07T04:37:41;6.40;;;5.18;;
75408;SDS011;63979;55.644;37.734;2023-08-07T04:42:42;5.15;;;4.68;;
75408;SDS011;63979;55.644;37.734;2023-08-07T04:47:43;6.80;;;4.80;;
75408;SDS011;63979;55.644;37.734;2023-08-07T04:52:44;7.95;;;5.15;;
75408;SDS011;63979;55.644;37.734;2023-08-07T04:57:45;8.02;;;4.68;;
75408;SDS011;63979;55.644;37.734;2023-08-07T05:02:47;6.78;;;5.18;;
75408;SDS011;63979;55.644;37.734;2023-08-07T05:07:50;5.57;;;4.07;;
75408;SDS011;63979;55.644;37.734;2023-08-07T05:12:52;12.82;;;4.75;;
75408;SDS011;63979;55.644;37.734;2023-08-07T05:17:56;5.35;;;4.47;;
75408;SDS011;63979;55.644;37.734;2023-08-07T05:22:57;4.60;;;3.95;;
75408;SDS011;63979;55.644;37.734;2023-08-07T05:27:58;5.78;;;3.95;;
75408;SDS011;63979;55.644;37.734;2023-08-07T05:32:59;6.07;;;4.35;;
75408;SDS011;63979;55.644;37.734;2023-08-07T05:38:00;5.28;;;4.78;;
75408;SDS011;63979;55.644;37.734;2023-08-07T05:43:01;5.15;;;3.88;;
75408;SDS011;63979;55.644;37.734;2023-08-07T05:48:03;3.90;;;3.60;;
75408;SDS011;63979;55.644;37.734;2023-08-07T05:53:04;6.70;;;3.83;;
75408;SDS011;63979;55.644;37.734;2023-08-07T05:58:06;5.80;;;3.70;;
75408;SDS011;63979;55.644;37.734;2023-08-07T06:03:07;7.45;;;3.03;;
75408;SDS011;63979;55.644;37.734;2023-08-07T06:08:08;5.85;;;3.50;;
75408;SDS011;63979;55.644;37.734;2023-08-07T06:13:09;5.40;;;3.90;;
75408;SDS011;63979;55.644;37.734;2023-08-07T06:18:10;5.20;;;3.75;;
75408;SDS011;63979;55.644;37.734;2023-08-07T06:23:12;4.25;;;3.25;;
75408;SDS011;63979;55.644;37.734;2023-08-07T06:28:13;4.10;;;3.63;;
75408;SDS011;63979;55.644;37.734;2023-08-07T06:33:14;5.45;;;2.65;;
75408;SDS011;63979;55.644;37.734;2023-08-07T06:38:15;6.35;;;2.95;;
75408;SDS011;63979;55.644;37.734;2023-08-07T06:43:17;7.00;;;2.83;;
75408;SDS011;63979;55.644;37.734;2023-08-07T06:48:18;4.45;;;2.63;;
75408;SDS011;63979;55.644;37.734;2023-08-07T06:53:19;4.53;;;2.50;;
75408;SDS011;63979;55.644;37.734;2023-08-07T06:58:20;4.20;;;2.60;;
75408;SDS011;63979;55.644;37.734;2023-08-07T07:03:21;3.85;;;2.20;;
75408;SDS011;63979;55.644;37.734;2023-08-07T07:08:22;7.10;;;2.47;;
75408;SDS011;63979;55.644;37.734;2023-08-07T07:13:24;3.55;;;1.85;;
75408;SDS011;63979;55.644;37.734;2023-08-07T07:18:25;3.53;;;2.22;;
75408;SDS011;63979;55.644;37.734;2023-08-07T07:23:27;2.60;;;2.40;;
75408;SDS011;63979;55.644;37.734;2023-08-07T07:28:28;4.82;;;2.40;;
75408;SDS011;63979;55.644;37.734;2023-08-07T07:33:29;3.35;;;1.70;;
75408;SDS011;63979;55.644;37.734;2023-08-07T07:38:31;3.53;;;1.80;;
75408;SDS011;63979;55.644;37.734;2023-08-07T07:43:32;3.05;;;1.75;;
75408;SDS011;63979;55.644;37.734;2023-08-07T07:48:33;4.88;;;2.05;;
75408;SDS011;63979;55.644;37.734;2023-08-07T07:53:34;2.33;;;2.10;;
75408;SDS011;63979;55.644;37.734;2023-08-07T07:58:35;8.23;;;2.70;;
75408;SDS011;63979;55.644;37.734;2023-08-07T08:03:36;3.78;;;2.40;;
75408;SDS011;63979;55.644;37.734;2023-08-07T08:08:37;3.75;;;2.10;;
75408;SDS011;63979;55.644;37.734;2023-08-07T08:13:38;7.35;;;2.15;;
75408;SDS011;63979;55.644;37.734;2023-08-07T08:18:41;6.13;;;2.90;;
75408;SDS011;63979;55.644;37.734;2023-08-07T08:23:42;3.08;;;2.30;;
75408;SDS011;63979;55.644;37.734;2023-08-07T08:28:44;3.83;;;1.92;;
75408;SDS011;63979;55.644;37.734;2023-08-07T08:33:45;4.47;;;1.90;;
75408;SDS011;63979;55.644;37.734;2023-08-07T08:38:46;5.43;;;2.10;;
75408;SDS011;63979;55.644;37.734;2023-08-07T08:43:48;2.50;;;1.60;;
75408;SDS011;63979;55.644;37.734;2023-08-07T08:48:55;5.95;;;1.83;;
75408;SDS011;63979;55.644;37.734;2023-08-07T08:53:59;5.50;;;1.85;;
75408;SDS011;63979;55.644;37.734;2023-08-07T08:59:02;3.88;;;2.10;;
75408;SDS011;63979;55.644;37.734;2023-08-07T09:04:03;1.95;;;1.42;;
75408;SDS011;63979;55.644;37.734;2023-08-07T09:09:05;3.05;;;1.50;;
75408;SDS011;63979;55.644;37.734;2023-08-07T09:14:09;4.43;;;1.88;;
75408;SDS011;63979;55.644;37.734;2023-08-07T09:19:15;3.80;;;1.70;;
75408;SDS011;63979;55.644;37.734;2023-08-07T09:24:16;3.35;;;1.70;;
75408;SDS011;63979;55.644;37.734;2023-08-07T09:29:20;3.90;;;2.22;;
75408;SDS011;63979;55.644;37.734;2023-08-07T09:34:21;4.05;;;2.00;;
75408;SDS011;63979;55.644;37.734;2023-08-07T09:39:23;2.90;;;1.70;;
75408;SDS011;63979;55.644;37.734;2023-08-07T09:44:37;4.30;;;1.52;;
75408;SDS011;63979;55.644;37.734;2023-08-07T09:49:38;4.25;;;1.85;;
75408;SDS011;63979;55.644;37.734;2023-08-07T09:54:40;3.63;;;1.65;;
75408;SDS011;63979;55.644;37.734;2023-08-07T09:59:41;3.83;;;1.98;;
75408;SDS011;63979;55.644;37.734;2023-08-07T10:04:43;5.57;;;1.90;;
75408;SDS011;63979;55.644;37.734;2023-08-07T10:09:45;2.72;;;1.92;;
75408;SDS011;63979;55.644;37.734;2023-08-07T10:14:47;3.60;;;1.50;;
75408;SDS011;63979;55.644;37.734;2023-08-07T10:19:50;2.10;;;1.63;;
75408;SDS011;63979;55.644;37.734;2023-08-07T10:24:52;3.33;;;1.63;;
75408;SDS011;63979;55.644;37.734;2023-08-07T10:29:54;2.45;;;2.22;;
75408;SDS011;63979;55.644;37.734;2023-08-07T10:40:03;3.15;;;2.05;;
75408;SDS011;63979;55.644;37.734;2023-08-07T10:45:06;6.80;;;2.30;;
75408;SDS011;63979;55.644;37.734;2023-08-07T10:50:09;3.55;;;2.10;;
75408;SDS011;63979;55.644;37.734;2023-08-07T10:55:14;5.20;;;2.33;;
75408;SDS011;63979;55.644;37.734;2023-08-07T11:00:16;3.20;;;2.75;;
75408;SDS011;63979;55.644;37.734;2023-08-07T11:05:18;2.92;;;2.38;;
75408;SDS011;63979;55.644;37.734;2023-08-07T11:10:20;3.83;;;1.90;;
75408;SDS011;63979;55.644;37.734;2023-08-07T11:15:21;2.35;;;2.15;;
75408;SDS011;63979;55.644;37.734;2023-08-07T11:20:22;4.97;;;2.30;;
75408;SDS011;63979;55.644;37.734;2023-08-07T11:25:23;3.78;;;2.28;;
75408;SDS011;63979;55.644;37.734;2023-08-07T11:30:26;3.85;;;2.20;;
75408;SDS011;63979;55.644;37.734;2023-08-07T11:35:28;3.33;;;2.40;;
75408;SDS011;63979;55.644;37.734;2023-08-07T11:40:29;4.50;;;2.60;;
75408;SDS011;63979;55.644;37.734;2023-08-07T11:45:30;3.78;;;2.65;;
75408;SDS011;63979;55.644;37.734;2023-08-07T11:50:31;2.72;;;2.20;;
75408;SDS011;63979;55.644;37.734;2023-08-07T11:55:33;5.03;;;2.97;;
75408;SDS011;63979;55.644;37.734;2023-08-07T12:00:34;4.75;;;2.28;;
75408;SDS011;63979;55.644;37.734;2023-08-07T12:05:39;5.10;;;2.67;;
75408;SDS011;63979;55.644;37.734;2023-08-07T12:10:41;3.92;;;2.47;;
75408;SDS011;63979;55.644;37.734;2023-08-07T12:15:42;3.88;;;3.30;;
75408;SDS011;63979;55.644;37.734;2023-08-07T12:20:43;3.83;;;2.45;;
75408;SDS011;63979;55.644;37.734;2023-08-07T12:25:44;3.05;;;2.60;;
75408;SDS011;63979;55.644;37.734;2023-08-07T12:30:46;4.05;;;2.53;;
75408;SDS011;63979;55.644;37.734;2023-08-07T12:35:48;4.22;;;2.72;;
75408;SDS011;63979;55.644;37.734;2023-08-07T12:40:49;6.45;;;2.80;;
75408;SDS011;63979;55.644;37.734;2023-08-07T12:45:51;2.67;;;2.47;;
75408;SDS011;63979;55.644;37.734;2023-08-07T12:50:53;3.03;;;2.63;;
75408;SDS011;63979;55.644;37.734;2023-08-07T12:55:54;5.07;;;2.88;;
75408;SDS011;63979;55.644;37.734;2023-08-07T13:00:55;5.00;;;2.65;;
75408;SDS011;63979;55.644;37.734;2023-08-07T13:05:56;4.78;;;4.38;;
75408;SDS011;63979;55.644;37.734;2023-08-07T13:10:57;6.03;;;3.05;;
75408;SDS011;63979;55.644;37.734;2023-08-07T13:15:58;5.03;;;3.10;;
75408;SDS011;63979;55.644;37.734;2023-08-07T13:21:00;3.60;;;2.45;;
75408;SDS011;63979;55.644;37.734;2023-08-07T13:26:01;4.35;;;2.83;;
75408;SDS011;63979;55.644;37.734;2023-08-07T13:31:02;3.47;;;2.85;;
75408;SDS011;63979;55.644;37.734;2023-08-07T13:36:03;6.20;;;2.60;;
75408;SDS011;63979;55.644;37.734;2023-08-07T13:41:04;3.10;;;2.80;;
75408;SDS011;63979;55.644;37.734;2023-08-07T13:46:06;2.90;;;2.70;;
75408;SDS011;63979;55.644;37.734;2023-08-07T13:51:07;5.57;;;3.22;;
75408;SDS011;63979;55.644;37.734;2023-08-07T13:56:09;3.88;;;2.78;;
75408;SDS011;63979;55.644;37.734;2023-08-07T14:01:13;5.22;;;2.50;;
75408;SDS011;63979;55.644;37.734;2023-08-07T14:06:14;5.53;;;2.67;;
75408;SDS011;63979;55.644;37.734;2023-08-07T14:11:16;7.90;;;3.40;;
75408;SDS011;63979;55.644;37.734;2023-08-07T14:16:17;2.90;;;2.70;;
75408;SDS011;63979;55.644;37.734;2023-08-07T14:21:18;3.30;;;2.65;;
75408;SDS011;63979;55.644;37.734;2023-08-07T14:26:20;2.83;;;2.63;;
75408;SDS011;63979;55.644;37.734;2023-08-07T14:31:21;3.38;;;2.92;;
75408;SDS011;63979;55.644;37.734;2023-08-07T14:36:22;5.15;;;2.80;;
75408;SDS011;63979;55.644;37.734;2023-08-07T14:41:23;3.00;;;2.78;;
75408;SDS011;63979;55.644;37.734;2023-08-07T14:46:25;4.13;;;3.20;;
75408;SDS011;63979;55.644;37.734;2023-08-07T14:51:26;4.38;;;2.60;;
75408;SDS011;63979;55.644;37.734;2023-08-07T14:56:27;6.55;;;3.10;;
75408;SDS011;63979;55.644;37.734;2023-08-07T15:01:28;5.38;;;3.33;;
75408;SDS011;63979;55.644;37.734;2023-08-07T15:06:29;7.47;;;3.33;;
75408;SDS011;63979;55.644;37.734;2023-08-07T15:11:30;4.20;;;3.03;;
75408;SDS011;63979;55.644;37.734;2023-08-07T15:16:31;3.25;;;2.95;;
75408;SDS011;63979;55.644;37.734;2023-08-07T15:21:32;3.42;;;3.13;;
75408;SDS011;63979;55.644;37.734;2023-08-07T15:26:34;9.18;;;3.20;;
75408;SDS011;63979;55.644;37.734;2023-08-07T15:31:35;4.95;;;3.60;;
75408;SDS011;63979;55.644;37.734;2023-08-07T15:36:36;4.30;;;2.70;;
75408;SDS011;63979;55.644;37.734;2023-08-07T15:41:37;4.75;;;3.65;;
75408;SDS011;63979;55.644;37.734;2023-08-07T15:46:38;4.50;;;3.20;;
75408;SDS011;63979;55.644;37.734;2023-08-07T15:51:40;3.70;;;3.08;;
75408;SDS011;63979;55.644;37.734;2023-08-07T15:56:41;3.30;;;2.53;;
75408;SDS011;63979;55.644;37.734;2023-08-07T16:01:42;3.30;;;2.85;;
75408;SDS011;63979;55.644;37.734;2023-08-07T16:06:43;3.22;;;2.75;;
75408;SDS011;63979;55.644;37.734;2023-08-07T16:11:44;4.38;;;2.67;;
75408;SDS011;63979;55.644;37.734;2023-08-07T16:16:46;3.85;;;3.20;;
75408;SDS011;63979;55.644;37.734;2023-08-07T16:21:46;5.88;;;2.90;;
75408;SDS011;63979;55.644;37.734;2023-08-07T16:26:48;4.07;;;2.88;;
75408;SDS011;63979;55.644;37.734;2023-08-07T16:31:49;6.32;;;3.22;;
75408;SDS011;63979;55.644;37.734;2023-08-07T16:36:50;3.88;;;2.95;;
75408;SDS011;63979;55.644;37.734;2023-08-07T16:41:51;3.33;;;2.70;;
75408;SDS011;63979;55.644;37.734;2023-08-07T16:46:53;6.32;;;3.25;;
75408;SDS011;63979;55.644;37.734;2023-08-07T16:51:54;5.15;;;2.80;;
75408;SDS011;63979;55.644;37.734;2023-08-07T16:56:58;6.13;;;3.10;;
75408;SDS011;63979;55.644;37.734;2023-08-07T17:01:59;5.10;;;3.08;;
75408;SDS011;63979;55.644;37.734;2023-08-07T17:07:01;3.80;;;3.00;;
75408;SDS011;63979;55.644;37.734;2023-08-07T17:12:02;9.05;;;3.63;;
75408;SDS011;63979;55.644;37.734;2023-08-07T17:17:04;6.45;;;3.75;;
75408;SDS011;63979;55.644;37.734;2023-08-07T17:22:05;6.50;;;3.28;;
75408;SDS011;63979;55.644;37.734;2023-08-07T17:27:06;4.72;;;3.47;;
75408;SDS011;63979;55.644;37.734;2023-08-07T17:32:07;6.35;;;3.50;;
75408;SDS011;63979;55.644;37.734;2023-08-07T17:37:08;4.80;;;3.85;;
75408;SDS011;63979;55.644;37.734;2023-08-07T17:42:10;5.22;;;3.97;;
75408;SDS011;63979;55.644;37.734;2023-08-07T17:47:11;3.75;;;2.90;;
75408;SDS011;63979;55.644;37.734;2023-08-07T17:52:12;6.97;;;3.65;;
75408;SDS011;63979;55.644;37.734;2023-08-07T17:57:13;6.47;;;4.10;;
75408;SDS011;63979;55.644;37.734;2023-08-07T18:02:14;7.63;;;4.38;;
75408;SDS011;63979;55.644;37.734;2023-08-07T18:07:15;6.57;;;3.58;;
75408;SDS011;63979;55.644;37.734;2023-08-07T18:12:16;6.75;;;4.13;;
75408;SDS011;63979;55.644;37.734;2023-08-07T18:17:17;9.13;;;4.88;;
75408;SDS011;63979;55.644;37.734;2023-08-07T18:22:19;4.80;;;4.20;;
75408;SDS011;63979;55.644;37.734;2023-08-07T18:27:20;8.30;;;4.15;;
75408;SDS011;63979;55.644;37.734;2023-08-07T18:32:22;5.32;;;3.42;;
75408;SDS011;63979;55.644;37.734;2023-08-07T18:37:24;6.78;;;4.20;;
75408;SDS011;63979;55.644;37.734;2023-08-07T18:42:24;5.30;;;4.35;;
75408;SDS011;63979;55.644;37.734;2023-08-07T18:47:26;5.47;;;4.80;;
75408;SDS011;63979;55.644;37.734;2023-08-07T18:52:27;6.32;;;3.55;;
75408;SDS011;63979;55.644;37.734;2023-08-07T18:57:28;9.32;;;4.30;;
75408;SDS011;63979;55.644;37.734;2023-08-07T19:02:29;10.65;;;3.78;;
75408;SDS011;63979;55.644;37.734;2023-08-07T19:07:31;4.82;;;4.22;;
75408;SDS011;63979;55.644;37.734;2023-08-07T19:12:32;5.65;;;3.08;;
75408;SDS011;63979;55.644;37.734;2023-08-07T19:17:33;4.85;;;3.50;;
75408;SDS011;63979;55.644;37.734;2023-08-07T19:22:40;4.55;;;3.47;;
75408;SDS011;63979;55.644;37.734;2023-08-07T19:27:42;3.38;;;3.08;;
75408;SDS011;63979;55.644;37.734;2023-08-07T19:32:43;3.22;;;2.70;;
75408;SDS011;63979;55.644;37.734;2023-08-07T19:37:44;3.40;;;3.10;;
75408;SDS011;63979;55.644;37.734;2023-08-07T19:42:45;3.30;;;3.00;;
75408;SDS011;63979;55.644;37.734;2023-08-07T19:47:46;4.38;;;3.25;;
75408;SDS011;63979;55.644;37.734;2023-08-07T19:52:48;5.82;;;3.40;;
75408;SDS011;63979;55.644;37.734;2023-08-07T19:57:49;4.15;;;3.00;;
75408;SDS011;63979;55.644;37.734;2023-08-07T20:02:50;4.40;;;2.55;;
75408;SDS011;63979;55.644;37.734;2023-08-07T20:07:52;5.60;;;3.08;;
75408;SDS011;63979;55.644;37.734;2023-08-07T20:12:53;5.32;;;3.22;;
75408;SDS011;63979;55.644;37.734;2023-08-07T20:17:54;3.90;;;3.00;;
75408;SDS011;63979;55.644;37.734;2023-08-07T20:22:55;4.03;;;3.63;;
75408;SDS011;63979;55.644;37.734;2023-08-07T20:27:56;5.55;;;2.63;;
75408;SDS011;63979;55.644;37.734;2023-08-07T20:32:57;4.35;;;2.85;;
75408;SDS011;63979;55.644;37.734;2023-08-07T20:37:58;5.15;;;2.65;;
75408;SDS011;63979;55.644;37.734;2023-08-07T20:43:00;5.60;;;2.72;;
75408;SDS011;63979;55.644;37.734;2023-08-07T20:48:01;6.85;;;2.70;;
75408;SDS011;63979;55.644;37.734;2023-08-07T20:53:02;4.60;;;2.95;;
75408;SDS011;63979;55.644;37.734;2023-08-07T20:58:03;4.28;;;3.17;;
75408;SDS011;63979;55.644;37.734;2023-08-07T21:03:05;5.53;;;3.10;;
75408;SDS011;63979;55.644;37.734;2023-08-07T21:08:06;4.45;;;3.53;;
75408;SDS011;63979;55.644;37.734;2023-08-07T21:13:07;4.57;;;2.85;;
75408;SDS011;63979;55.644;37.734;2023-08-07T21:18:08;2.97;;;2.75;;
75408;SDS011;63979;55.644;37.734;2023-08-07T21:23:10;4.15;;;3.22;;
75408;SDS011;63979;55.644;37.734;2023-08-07T21:28:12;6.28;;;3.65;;
75408;SDS011;63979;55.644;37.734;2023-08-07T21:33:13;12.10;;;4.47;;
75408;SDS011;63979;55.644;37.734;2023-08-07T21:38:14;6.68;;;5.88;;
75408;SDS011;63979;55.644;37.734;2023-08-07T21:43:15;5.82;;;4.78;;
75408;SDS011;63979;55.644;37.734;2023-08-07T21:48:16;11.63;;;6.35;;
75408;SDS011;63979;55.644;37.734;2023-08-07T21:53:17;5.70;;;4.85;;
75408;SDS011;63979;55.644;37.734;2023-08-07T21:58:18;6.53;;;5.45;;
75408;SDS011;63979;55.644;37.734;2023-08-07T22:03:19;9.77;;;5.25;;
75408;SDS011;63979;55.644;37.734;2023-08-07T22:08:20;9.27;;;5.40;;
75408;SDS011;63979;55.644;37.734;2023-08-07T22:13:21;5.90;;;5.40;;
75408;SDS011;63979;55.644;37.734;2023-08-07T22:18:22;5.05;;;4.65;;
75408;SDS011;63979;55.644;37.734;2023-08-07T22:23:23;5.18;;;4.35;;
75408;SDS011;63979;55.644;37.734;2023-08-07T22:28:26;5.05;;;4.25;;
75408;SDS011;63979;55.644;37.734;2023-08-07T22:33:27;5.57;;;4.03;;
75408;SDS011;63979;55.644;37.734;2023-08-07T22:38:29;5.95;;;3.90;;
75408;SDS011;63979;55.644;37.734;2023-08-07T22:43:33;4.95;;;4.22;;
75408;SDS011;63979;55.644;37.734;2023-08-07T22:48:34;6.20;;;3.38;;
75408;SDS011;63979;55.644;37.734;2023-08-07T22:53:35;5.50;;;4.10;;
75408;SDS011;63979;55.644;37.734;2023-08-07T22:58:36;4.20;;;3.70;;
75408;SDS011;63979;55.644;37.734;2023-08-07T23:03:36;7.95;;;3.85;;
75408;SDS011;63979;55.644;37.734;2023-08-07T23:08:37;6.40;;;3.95;;
75408;SDS011;63979;55.644;37.734;2023-08-07T23:13:39;6.20;;;3.88;;
75408;SDS011;63979;55.644;37.734;2023-08-07T23:18:40;6.22;;;4.38;;
75408;SDS011;63979;55.644;37.734;2023-08-07T23:23:41;5.85;;;3.67;;
75408;SDS011;63979;55.644;37.734;2023-08-07T23:28:42;5.75;;;3.35;;
75408;SDS011;63979;55.644;37.734;2023-08-07T23:33:43;3.65;;;3.33;;
75408;SDS011;63979;55.644;37.734;2023-08-07T23:38:44;3.75;;;3.10;;
75408;SDS011;63979;55.644;37.734;2023-08-07T23:43:46;3.35;;;3.05;;
75408;SDS011;63979;55.644;37.734;2023-08-07T23:48:47;4.97;;;3.40;;
75408;SDS011;63979;55.644;37.734;2023-08-07T23:53:49;3.53;;;3.22;;
75408;SDS011;63979;55.644;37.734;2023-08-07T23:58:50;8.15;;;3.55;;
